createdAt,value
2022-11-24T00:00:47.182Z,100869.59
2022-11-24T00:03:18.604Z,100872.88
2022-11-24T00:05:50.339Z,100846.78
2022-11-24T00:08:22.159Z,100850.91
2022-11-24T00:10:53.483Z,100878.41
2022-11-24T00:13:24.866Z,100876.09
2022-11-24T00:15:56.257Z,100881.72
2022-11-24T00:18:27.616Z,100875.03
2022-11-24T00:20:59.223Z,100893.38
2022-11-24T00:23:30.879Z,100900.22
2022-11-24T00:26:20.506Z,100896.72
2022-11-24T00:28:54.290Z,100912.06
2022-11-24T00:31:27.029Z,100892.97
2022-11-24T00:34:01.342Z,100820.41
2022-11-24T00:36:34.945Z,100826.03
2022-11-24T00:39:09.142Z,100888.63
2022-11-24T00:41:41.556Z,100916.88
2022-11-24T00:44:13.048Z,100860.50
2022-11-24T00:46:44.511Z,100924.88
2022-11-24T00:49:16.021Z,100921.88
2022-11-24T00:51:48.028Z,100924.16
2022-11-24T00:54:20.008Z,100902.13
2022-11-24T00:56:51.702Z,100939.94
2022-11-24T00:59:23.415Z,100945.56
2022-11-24T01:01:54.691Z,100949.63
2022-11-24T01:04:26.352Z,100940.34
2022-11-24T01:06:57.653Z,100959.41
2022-11-24T01:09:28.963Z,100912.72
2022-11-24T01:12:03.080Z,100934.53
2022-11-24T01:14:35.392Z,100963.66
2022-11-24T01:17:07.142Z,100973.22
2022-11-24T01:19:38.962Z,100959.09
2022-11-24T01:22:10.769Z,100961.78
2022-11-24T01:24:42.932Z,100955.13
2022-11-24T01:27:14.599Z,100934.75
2022-11-24T01:29:46.363Z,100975.75
2022-11-24T01:32:17.734Z,100980.13
2022-11-24T01:34:49.155Z,100984.47
2022-11-24T01:37:20.798Z,100962.03
2022-11-24T01:39:52.124Z,100966.63
2022-11-24T01:42:23.818Z,100989.06
2022-11-24T01:45:33.105Z,100996.94
2022-11-24T01:48:14.431Z,100983.66
2022-11-24T01:50:46.901Z,100998.00
2022-11-24T01:53:18.578Z,100989.06
2022-11-24T01:55:50.941Z,101001.97
2022-11-24T01:58:26.672Z,100999.03
2022-11-24T02:00:58.969Z,101012.34
2022-11-24T02:03:37.375Z,101009.00
2022-11-24T02:06:08.810Z,101015.28
2022-11-24T02:08:55.522Z,101023.16
2022-11-24T02:11:31.424Z,101020.25
2022-11-24T02:14:03.855Z,101027.31
2022-11-24T02:16:36.385Z,101020.81
2022-11-24T02:19:32.725Z,101025.66
2022-11-24T02:22:06.153Z,101032.31
2022-11-24T02:25:03.286Z,101022.13
2022-11-24T02:27:34.795Z,101031.88
2022-11-24T02:30:06.866Z,100993.22
2022-11-24T02:32:42.536Z,100970.53
2022-11-24T02:35:16.140Z,101018.59
2022-11-24T02:37:47.567Z,101023.56
2022-11-24T02:40:26.359Z,101022.34
2022-11-24T02:43:05.936Z,100947.09
2022-11-24T02:45:37.564Z,101011.72
2022-11-24T02:48:09.076Z,101012.34
2022-11-24T02:50:40.430Z,101008.19
2022-11-24T02:53:11.797Z,100968.06
2022-11-24T02:55:43.308Z,100994.94
2022-11-24T02:58:16.579Z,100994.94
2022-11-24T03:00:48.645Z,100985.34
2022-11-24T03:03:20.185Z,100988.88
2022-11-24T03:05:52.252Z,100986.56
2022-11-24T03:08:23.630Z,100984.28
2022-11-24T03:10:56.026Z,100974.94
2022-11-24T03:13:27.396Z,100999.03
2022-11-24T03:15:59.236Z,100999.88
2022-11-24T03:18:30.667Z,100967.25
2022-11-24T03:21:02.616Z,101011.31
2022-11-24T03:23:34.073Z,101011.94
2022-11-24T03:26:16.926Z,100951.66
2022-11-24T03:28:48.450Z,101013.16
2022-11-24T03:31:20.034Z,101009.44
2022-11-24T03:33:52.220Z,101004.44
2022-11-24T03:36:23.840Z,101001.53
2022-11-24T03:38:55.497Z,100979.09
2022-11-24T03:41:26.768Z,100991.56
2022-11-24T03:43:58.030Z,100986.34
2022-11-24T03:46:29.477Z,100989.84
2022-11-24T03:49:01.049Z,100987.38
2022-11-24T03:51:32.580Z,101012.31
2022-11-24T03:54:04.415Z,101024.59
2022-11-24T03:56:36.074Z,101040.63
2022-11-24T03:59:07.629Z,101038.13
2022-11-24T04:01:39.229Z,101030.00
2022-11-24T04:04:14.000Z,101026.88
2022-11-24T04:06:45.561Z,101011.72
2022-11-24T04:09:16.752Z,101007.59
2022-11-24T04:12:06.271Z,101000.69
2022-11-24T04:14:38.341Z,101008.38
2022-11-24T04:17:09.989Z,101021.91
2022-11-24T04:19:41.635Z,101016.50
2022-11-24T04:22:14.076Z,101022.28
2022-11-24T04:24:45.391Z,101009.81
2022-11-24T04:27:18.416Z,101019.41
2022-11-24T04:29:50.034Z,100997.78
2022-11-24T04:32:21.464Z,101014.41
2022-11-24T04:34:53.119Z,101000.69
2022-11-24T04:37:24.655Z,100986.72
2022-11-24T04:39:56.768Z,100992.13
2022-11-24T04:42:27.609Z,100983.66
2022-11-24T04:44:59.116Z,100938.50
2022-11-24T04:47:30.524Z,100959.69
2022-11-24T04:50:02.120Z,100951.97
2022-11-24T04:52:33.619Z,100942.81
2022-11-24T04:55:05.617Z,100948.63
2022-11-24T04:57:36.504Z,100945.78
2022-11-24T05:00:08.999Z,100933.22
2022-11-24T05:02:40.494Z,100924.47
2022-11-24T05:05:12.327Z,100918.63
2022-11-24T05:07:43.746Z,100909.88
2022-11-24T05:10:33.221Z,100909.47
2022-11-24T05:13:08.311Z,100820.19
2022-11-24T05:15:41.271Z,100902.16
2022-11-24T05:18:20.100Z,100901.50
2022-11-24T05:20:51.586Z,100901.13
2022-11-24T05:23:23.034Z,100902.31
2022-11-24T05:25:55.021Z,100904.84
2022-11-24T05:28:25.844Z,100907.22
2022-11-24T05:31:00.550Z,100898.22
2022-11-24T05:33:34.750Z,100881.38
2022-11-24T05:36:08.346Z,100905.22
2022-11-24T05:38:39.906Z,100897.72
2022-11-24T05:41:11.381Z,100881.13
2022-11-24T05:43:42.759Z,100866.19
2022-11-24T05:46:14.390Z,100896.28
2022-11-24T05:48:46.444Z,100888.59
2022-11-24T05:51:17.933Z,100887.94
2022-11-24T05:53:49.296Z,100879.00
2022-11-24T05:56:20.855Z,100872.69
2022-11-24T05:58:52.452Z,100856.50
2022-11-24T06:01:24.409Z,100857.94
2022-11-24T06:03:55.728Z,100841.75
2022-11-24T06:06:27.134Z,100810.19
2022-11-24T06:08:58.416Z,100827.34
2022-11-24T06:11:29.835Z,100816.50
2022-11-24T06:14:01.075Z,100823.81
2022-11-24T06:16:32.630Z,100814.44
2022-11-24T06:19:04.237Z,100789.91
2022-11-24T06:21:35.601Z,100777.84
2022-11-24T06:24:07.555Z,100768.69
2022-11-24T06:26:38.988Z,100768.63
2022-11-24T06:29:10.802Z,100767.97
2022-11-24T06:31:42.398Z,100757.16
2022-11-24T06:34:15.539Z,100679.81
2022-11-24T06:36:47.263Z,100750.22
2022-11-24T06:39:18.750Z,100755.66
2022-11-24T06:41:51.963Z,100747.53
2022-11-24T06:44:24.078Z,100732.91
2022-11-24T06:46:55.641Z,100755.06
2022-11-24T06:49:27.356Z,100735.31
2022-11-24T06:51:58.846Z,100767.97
2022-11-24T06:54:30.200Z,100768.59
2022-11-24T06:57:02.543Z,100787.69
2022-11-24T06:59:34.329Z,100775.22
2022-11-24T07:02:05.809Z,100776.84
2022-11-24T07:04:37.497Z,100776.28
2022-11-24T07:07:09.213Z,100762.75
2022-11-24T07:09:40.640Z,100778.53
2022-11-24T07:12:12.176Z,100766.03
2022-11-24T07:14:43.916Z,100767.72
2022-11-24T07:17:15.295Z,100766.66
2022-11-24T07:19:46.953Z,100769.19
2022-11-24T07:22:18.342Z,100756.88
2022-11-24T07:24:50.144Z,100741.53
2022-11-24T07:27:22.322Z,100745.66
2022-11-24T07:29:53.735Z,100766.66
2022-11-24T07:32:25.239Z,100736.97
2022-11-24T07:34:56.532Z,100747.09
2022-11-24T07:37:31.575Z,100744.81
2022-11-24T07:40:03.772Z,100752.06
2022-11-24T07:42:35.428Z,100753.13
2022-11-24T07:45:07.203Z,100744.78
2022-11-24T07:47:40.690Z,100743.16
2022-11-24T07:50:13.120Z,100591.06
2022-11-24T07:52:44.463Z,100725.59
2022-11-24T07:55:16.088Z,100732.06
2022-11-24T07:57:47.423Z,100728.53
2022-11-24T08:00:19.473Z,100727.72
2022-11-24T08:02:51.300Z,100716.44
2022-11-24T08:05:23.007Z,100718.09
2022-11-24T08:07:54.134Z,100720.88
2022-11-24T08:10:25.635Z,100709.78
2022-11-24T08:12:56.926Z,100728.75
2022-11-24T08:15:28.224Z,100727.66
2022-11-24T08:18:04.203Z,100581.00
2022-11-24T08:20:35.722Z,100714.19
2022-11-24T08:23:07.412Z,100728.00
2022-11-24T08:25:39.038Z,100724.31
2022-11-24T08:28:10.516Z,100724.28
2022-11-24T08:30:41.994Z,100717.19
2022-11-24T08:33:14.359Z,100708.47
2022-11-24T08:35:45.816Z,100707.03
2022-11-24T08:38:18.822Z,100707.25
2022-11-24T08:40:53.347Z,100727.13
2022-11-24T08:43:24.902Z,100723.13
2022-11-24T08:45:56.228Z,100724.06
2022-11-24T08:48:27.523Z,100711.41
2022-11-24T08:51:00.345Z,100726.69
2022-11-24T08:53:31.726Z,100715.88
2022-11-24T08:56:03.417Z,100721.13
2022-11-24T08:58:35.546Z,100708.03
2022-11-24T09:01:08.062Z,100680.47
2022-11-24T09:03:44.993Z,100718.38
2022-11-24T09:06:26.775Z,100732.72
2022-11-24T09:08:58.719Z,100720.88
2022-11-24T09:11:29.643Z,100725.28
2022-11-24T09:14:01.044Z,100722.09
2022-11-24T09:16:32.452Z,100709.69
2022-11-24T09:19:06.681Z,100700.66
2022-11-24T09:21:41.357Z,100714.19
2022-11-24T09:24:13.047Z,100731.44
2022-11-24T09:26:47.607Z,100703.13
2022-11-24T09:29:19.458Z,100720.34
2022-11-24T09:31:51.760Z,100733.22
2022-11-24T09:34:23.776Z,100724.50
2022-11-24T09:36:54.715Z,100728.00
2022-11-24T09:39:26.616Z,100733.50
2022-11-24T09:42:38.715Z,100731.84
2022-11-24T09:45:49.322Z,100733.84
2022-11-24T09:48:52.516Z,100670.16
2022-11-24T09:51:32.970Z,100747.03
2022-11-24T09:54:11.971Z,100681.97
2022-11-24T09:56:44.933Z,100761.00
2022-11-24T09:59:21.485Z,100741.91
2022-11-24T10:01:54.544Z,100733.41
2022-11-24T10:04:30.073Z,100765.97
2022-11-24T10:07:14.202Z,100766.88
2022-11-24T10:10:15.756Z,100777.50
2022-11-24T10:13:08.036Z,100694.50
2022-11-24T10:15:45.849Z,100779.34
2022-11-24T10:18:36.188Z,100775.44
2022-11-24T10:21:46.181Z,100776.25
2022-11-24T10:24:39.059Z,100769.19
2022-11-24T10:27:22.570Z,100795.13
2022-11-24T10:29:57.255Z,100771.50
2022-11-24T10:32:38.794Z,100785.97
2022-11-24T10:35:23.944Z,100790.06
2022-11-24T10:37:58.674Z,100796.69
2022-11-24T10:40:56.425Z,100798.75
2022-11-24T10:43:30.246Z,100709.13
2022-11-24T10:46:17.464Z,100774.28
2022-11-24T10:49:00.869Z,100798.50
2022-11-24T10:52:07.447Z,100744.66
2022-11-24T10:54:55.140Z,100790.19
2022-11-24T10:57:37.618Z,100805.97
2022-11-24T11:00:22.142Z,100815.38
2022-11-24T11:03:12.819Z,100745.69
2022-11-24T11:05:50.159Z,100821.78
2022-11-24T11:08:28.365Z,100809.69
2022-11-24T11:11:31.425Z,100804.78
2022-11-24T11:14:05.817Z,100818.88
2022-11-24T11:16:39.660Z,100824.50
2022-11-24T11:19:49.118Z,100812.50
2022-11-24T11:22:32.725Z,100820.13
2022-11-24T11:25:05.836Z,100822.59
2022-11-24T11:27:38.529Z,100803.78
2022-11-24T11:36:18.599Z,100787.09
2022-11-24T11:38:50.616Z,100843.50
2022-11-24T11:41:36.567Z,100858.94
2022-11-24T11:44:44.028Z,100846.91
2022-11-24T11:47:30.423Z,100860.63
2022-11-24T11:50:01.903Z,100799.22
2022-11-24T11:53:10.038Z,100858.63
2022-11-24T11:55:45.204Z,100858.94
2022-11-24T11:59:04.058Z,100864.03
2022-11-24T12:02:09.785Z,100873.19
2022-11-24T12:05:03.995Z,100875.19
2022-11-24T12:07:48.024Z,100884.38
2022-11-24T12:10:34.838Z,100877.31
2022-11-24T12:13:24.604Z,100893.31
2022-11-24T12:16:01.113Z,100890.66
2022-11-24T12:18:58.733Z,100903.19
2022-11-24T12:22:01.864Z,100911.56
2022-11-24T12:24:33.381Z,100924.06
2022-11-24T12:27:22.895Z,100911.41
2022-11-24T12:30:05.632Z,100929.44
2022-11-24T12:32:52.108Z,100941.38
2022-11-24T12:35:45.143Z,100938.47
2022-11-24T12:38:32.708Z,100947.38
2022-11-24T12:41:33.783Z,100953.22
2022-11-24T12:44:01.950Z,100881.97
2022-11-24T12:46:45.837Z,100955.53
2022-11-24T12:49:51.457Z,100800.41
2022-11-24T12:52:31.889Z,100968.03
2022-11-24T12:55:05.400Z,100955.78
2022-11-24T12:57:45.764Z,100910.91
2022-11-24T13:00:27.326Z,100986.53
2022-11-24T13:03:17.067Z,100975.75
2022-11-24T13:06:12.130Z,100920.47
2022-11-24T13:08:43.855Z,100996.13
2022-11-24T13:11:37.336Z,100919.63
2022-11-24T13:14:34.225Z,100978.25
2022-11-24T13:17:38.362Z,101009.44
2022-11-24T13:20:23.212Z,101014.00
2022-11-24T13:23:09.548Z,101016.50
2022-11-24T13:26:03.479Z,101008.84
2022-11-24T13:29:12.965Z,101025.69
2022-11-24T13:31:57.384Z,101021.94
2022-11-24T13:34:44.615Z,101018.63
2022-11-24T13:37:41.905Z,101014.25
2022-11-24T13:40:19.204Z,101005.72
2022-11-24T13:43:01.834Z,101009.25
2022-11-24T13:45:44.633Z,101010.69
2022-11-24T13:48:23.304Z,101010.50
2022-11-24T13:50:58.267Z,101014.44
2022-11-24T13:53:43.533Z,101007.38
2022-11-24T13:56:15.311Z,101008.63
2022-11-24T13:59:20.264Z,101011.94
2022-11-24T14:02:00.118Z,100937.09
2022-11-24T14:04:35.299Z,101025.25
2022-11-24T14:07:13.821Z,100943.97
2022-11-24T14:09:50.416Z,101019.38
2022-11-24T14:12:27.564Z,100936.66
2022-11-24T14:15:25.060Z,101024.81
2022-11-24T14:17:58.783Z,101029.81
2022-11-24T14:20:30.597Z,101026.91
2022-11-24T14:23:03.323Z,101039.41
2022-11-24T14:25:36.708Z,101025.25
2022-11-24T14:28:27.923Z,101038.97
2022-11-24T14:31:24.683Z,101050.66
2022-11-24T14:34:18.960Z,101048.94
2022-11-24T14:36:52.254Z,100958.31
2022-11-24T14:39:26.381Z,101038.97
2022-11-24T14:42:06.915Z,101057.66
2022-11-24T14:44:55.812Z,101052.91
2022-11-24T14:47:32.889Z,101029.59
2022-11-24T14:50:25.374Z,101066.59
2022-11-24T14:53:00.500Z,101013.16
2022-11-24T14:55:40.840Z,101057.44
2022-11-24T14:58:41.746Z,100959.19
2022-11-24T15:01:36.638Z,101023.03
2022-11-24T15:07:30.864Z,101002.84
2022-11-24T15:10:07.373Z,100973.28
2022-11-24T15:12:50.312Z,101072.09
2022-11-24T15:15:24.909Z,101058.78
2022-11-24T15:18:00.313Z,101043.16
2022-11-24T15:20:43.882Z,101023.59
2022-11-24T15:23:30.455Z,101067.88
2022-11-24T15:26:04.728Z,101054.19
2022-11-24T15:28:37.961Z,101052.09
2022-11-24T15:31:14.547Z,101033.78
2022-11-24T15:33:48.132Z,101038.75
2022-11-24T15:36:21.570Z,101012.94
2022-11-24T15:38:53.787Z,101047.69
2022-11-24T15:41:31.560Z,101047.50
2022-11-24T15:44:03.578Z,101016.28
2022-11-24T15:46:40.073Z,101052.88
2022-11-24T15:49:11.485Z,101052.44
2022-11-24T15:51:46.375Z,100986.00
2022-11-24T15:54:20.564Z,101058.28
2022-11-24T15:56:52.036Z,101048.28
2022-11-24T15:59:23.800Z,101049.97
2022-11-24T16:01:55.083Z,101045.69
2022-11-24T16:04:26.505Z,101050.78
2022-11-24T16:07:00.816Z,101052.44
2022-11-24T16:09:32.910Z,101044.13
2022-11-24T16:12:05.358Z,101029.75
2022-11-24T16:14:38.151Z,101045.56
2022-11-24T16:17:10.034Z,101038.28
2022-11-24T16:19:43.065Z,101042.03
2022-11-24T16:22:14.589Z,101039.91
2022-11-24T16:24:46.211Z,101040.75
2022-11-24T16:27:17.635Z,101047.47
2022-11-24T16:29:49.007Z,101050.53
2022-11-24T16:32:20.593Z,101050.13
2022-11-24T16:34:52.940Z,101039.97
2022-11-24T16:37:24.475Z,101038.69
2022-11-24T16:39:56.127Z,101034.97
2022-11-24T16:42:28.092Z,101047.44
2022-11-24T16:44:59.581Z,101045.78
2022-11-24T16:47:31.104Z,101036.22
2022-11-24T16:50:02.814Z,101035.41
2022-11-24T16:52:34.737Z,101042.28
2022-11-24T16:55:08.063Z,100964.59
2022-11-24T16:57:39.551Z,101036.63
2022-11-24T17:00:12.008Z,101039.75
2022-11-24T17:02:43.551Z,101037.03
2022-11-24T17:05:15.190Z,101035.16
2022-11-24T17:07:46.936Z,101032.00
2022-11-24T17:10:18.464Z,101028.72
2022-11-24T17:12:50.110Z,101027.06
2022-11-24T17:15:42.805Z,101026.44
2022-11-24T17:18:24.334Z,101023.06
2022-11-24T17:21:05.975Z,101011.19
2022-11-24T17:23:41.009Z,101016.25
2022-11-24T17:26:20.034Z,101005.84
2022-11-24T17:28:51.622Z,100991.47
2022-11-24T17:31:28.720Z,100934.00
2022-11-24T17:34:01.713Z,101011.88
2022-11-24T17:36:35.358Z,100908.25
2022-11-24T17:39:12.551Z,101014.09
2022-11-24T17:41:43.937Z,100978.34
2022-11-24T17:44:15.385Z,100994.97
2022-11-24T17:46:47.217Z,100935.88
2022-11-24T17:49:19.887Z,100985.41
2022-11-24T17:51:52.024Z,100982.91
2022-11-24T17:57:14.894Z,100960.88
2022-11-24T17:59:46.411Z,100970.03
2022-11-24T18:02:18.006Z,100961.72
2022-11-24T18:04:49.787Z,100947.34
2022-11-24T18:07:21.177Z,100966.28
2022-11-24T18:09:52.641Z,100962.53
2022-11-24T18:12:24.227Z,100945.47
2022-11-24T18:14:56.531Z,100956.75
2022-11-24T18:17:28.370Z,100944.00
2022-11-24T18:20:00.264Z,100960.03
2022-11-24T18:22:57.949Z,100953.81
2022-11-24T18:25:23.527Z,100952.56
2022-11-24T18:27:54.851Z,100943.59
2022-11-24T18:30:26.414Z,100953.78
2022-11-24T18:33:00.107Z,100959.19
2022-11-24T18:35:31.522Z,100960.19
2022-11-24T18:38:02.870Z,100948.78
2022-11-24T18:40:34.417Z,100956.66
2022-11-24T18:43:05.865Z,100955.41
2022-11-24T18:45:40.022Z,100949.19
2022-11-24T18:48:12.639Z,100950.03
2022-11-24T18:50:44.377Z,100944.63
2022-11-24T18:53:15.704Z,100947.50
2022-11-24T18:55:55.528Z,100947.31
2022-11-24T18:58:28.857Z,100937.56
2022-11-24T19:01:17.697Z,100851.13
2022-11-24T19:03:51.813Z,100869.69
2022-11-24T19:06:43.325Z,100936.66
2022-11-24T19:09:21.887Z,100933.19
2022-11-24T19:11:53.525Z,100928.84
2022-11-24T19:14:25.296Z,100913.06
2022-11-24T19:16:57.022Z,100911.16
2022-11-24T19:19:29.955Z,100917.38
2022-11-24T19:22:01.579Z,100866.38
2022-11-24T19:24:33.464Z,100895.72
2022-11-24T19:27:05.282Z,100902.63
2022-11-24T19:29:41.734Z,100923.56
2022-11-24T19:32:14.575Z,100918.00
2022-11-24T19:34:46.286Z,100905.22
2022-11-24T19:37:17.858Z,100925.84
2022-11-24T19:39:49.523Z,100927.50
2022-11-24T19:42:21.217Z,100927.88
2022-11-24T19:44:56.387Z,100929.56
2022-11-24T19:47:29.331Z,100923.16
2022-11-24T19:50:01.595Z,100920.81
2022-11-24T19:52:34.342Z,100875.88
2022-11-24T19:55:06.534Z,100929.31
2022-11-24T19:57:38.007Z,100928.47
2022-11-24T20:00:11.107Z,100925.31
2022-11-24T20:02:42.542Z,100938.69
2022-11-24T20:05:14.189Z,100925.97
2022-11-24T20:07:46.006Z,100935.34
2022-11-24T20:10:17.581Z,100908.69
2022-11-24T20:12:49.003Z,100929.09
2022-11-24T20:15:22.149Z,100928.66
2022-11-24T20:17:54.059Z,100928.75
2022-11-24T20:20:25.647Z,100928.25
2022-11-24T20:22:57.359Z,100926.22
2022-11-24T20:25:28.980Z,100918.28
2022-11-24T20:28:00.405Z,100934.69
2022-11-24T20:30:31.850Z,100916.22
2022-11-24T20:33:03.540Z,100921.16
2022-11-24T20:35:35.393Z,100928.00
2022-11-24T20:38:06.925Z,100934.06
2022-11-24T20:40:38.292Z,100930.94
2022-11-24T20:43:09.950Z,100935.09
2022-11-24T20:45:41.331Z,100936.09
2022-11-24T20:48:13.305Z,100931.09
2022-11-24T20:50:49.781Z,100934.84
2022-11-24T20:53:22.677Z,100934.44
2022-11-24T20:55:54.082Z,100931.91
2022-11-24T20:58:25.783Z,100933.19
2022-11-24T21:00:57.460Z,100934.34
2022-11-24T21:03:29.010Z,100890.69
2022-11-24T21:06:00.694Z,100921.66
2022-11-24T21:08:35.574Z,100914.81
2022-11-24T21:11:08.633Z,100928.97
2022-11-24T21:13:41.638Z,100946.66
2022-11-24T21:16:18.683Z,100928.97
2022-11-24T21:18:52.476Z,100955.13
2022-11-24T21:21:25.744Z,100953.47
2022-11-24T21:23:57.312Z,100953.47
2022-11-24T21:26:28.744Z,100943.91
2022-11-24T21:29:00.751Z,100930.16
2022-11-24T21:31:32.471Z,100924.75
2022-11-24T21:34:04.606Z,100945.78
2022-11-24T21:36:37.339Z,100941.03
2022-11-24T21:39:08.971Z,100934.75
2022-11-24T21:41:41.031Z,100939.75
2022-11-24T21:44:14.944Z,100945.97
2022-11-24T21:46:52.595Z,100947.66
2022-11-24T21:49:27.005Z,100874.81
2022-11-24T21:51:58.358Z,100938.09
2022-11-24T21:54:29.738Z,100943.47
2022-11-24T21:57:01.228Z,100944.94
2022-11-24T21:59:32.987Z,100938.28
2022-11-24T22:02:06.728Z,100951.94
2022-11-24T22:04:42.097Z,100947.00
2022-11-24T22:07:13.630Z,100942.59
2022-11-24T22:09:45.383Z,100950.28
2022-11-24T22:12:16.672Z,100952.94
2022-11-24T22:14:47.995Z,100947.16
2022-11-24T22:17:19.265Z,100950.41
2022-11-24T22:19:51.093Z,100953.31
2022-11-24T22:22:22.349Z,100949.59
2022-11-24T22:24:53.628Z,100885.66
2022-11-24T22:27:25.518Z,100956.59
2022-11-24T22:29:56.783Z,100941.22
2022-11-24T22:32:28.093Z,100959.28
2022-11-24T22:34:59.349Z,100954.72
2022-11-24T22:37:30.699Z,100954.53
2022-11-24T22:40:02.383Z,100952.63
2022-11-24T22:42:34.316Z,100952.81
2022-11-24T22:45:05.817Z,100951.59
2022-11-24T22:47:37.184Z,100950.94
2022-11-24T22:50:09.265Z,100955.31
2022-11-24T22:52:41.900Z,100932.00
2022-11-24T22:55:13.188Z,100954.03
2022-11-24T22:57:48.107Z,100928.28
2022-11-24T23:00:20.213Z,100933.22
2022-11-24T23:02:51.551Z,100957.75
2022-11-24T23:05:22.861Z,100956.09
2022-11-24T23:07:54.566Z,100946.22
2022-11-24T23:10:26.087Z,100954.16
2022-11-24T23:12:57.759Z,100960.81
2022-11-24T23:15:29.324Z,100953.97
2022-11-24T23:18:00.943Z,100938.81
2022-11-24T23:20:32.513Z,100960.06
2022-11-24T23:23:04.343Z,100958.84
2022-11-24T23:25:36.437Z,100969.47
2022-11-24T23:28:08.277Z,100953.97
2022-11-24T23:30:39.627Z,100952.72
2022-11-24T23:33:11.357Z,100963.41
2022-11-24T23:35:42.744Z,100970.06
2022-11-24T23:38:14.283Z,100867.50
2022-11-24T23:40:45.951Z,100964.91
2022-11-24T23:43:17.255Z,100973.09
2022-11-24T23:45:48.534Z,100976.25
2022-11-24T23:48:19.999Z,100984.38
2022-11-24T23:50:51.601Z,100985.44
2022-11-24T23:53:23.937Z,100989.03
2022-11-24T23:55:58.629Z,100997.56
2022-11-24T23:58:30.435Z,100996.31
